Sewickley, Pennsylvania
Current Conditions -  °F | °C
As of 8:51 AM on Saturday 22 Nov 2014 (Local Time) from KPIT Reporting Station
Overcast Overcast  
Wind Chill: 25°   Ceiling: 6000
Heat Index: 25°   Visibility: 10mi
Dew Point: 13°   Wind: 3mph
Humidity: 60%   Direction: 160°SSE
Pressure: 30.3"   Gusts: NA
Location:  40.54°N, 80.18°W
Report Text: KPIT 221351Z 16003KT 10SM FEW044 BKN060 OVC100 M04/M11 A3030 RMK AO2 SLP287 T10391106
Loading
Personal Weather Stations






























Interactive Weather Map New forecast layout! Learn more

10-Day Weather Forecast

Advertisements
Track Severe Weather on mobile